Time,TemperatureF,DewpointF,PressureIn,WindDirection,WindDirectionDegrees,WindSpeedMPH,WindSpeedGustMPH,Humidity,HourlyPrecipIn,Conditions,Clouds,dailyrainin,SoftwareType,DateUTC
2013-06-05 00:06:00,56.8,44.0,29.93,NE,34,0.0,2.0,62,0.00,,,0.00,weatherlink.com 1.10,2013-06-05 07:06:00,
2013-06-05 00:22:00,56.7,44.0,29.93,NE,35,0.0,0.0,62,0.00,,,0.00,weatherlink.com 1.10,2013-06-05 07:22:00,
2013-06-05 00:37:00,58.5,43.0,29.93,NE,35,0.0,0.0,57,0.00,,,0.00,weatherlink.com 1.10,2013-06-05 07:37:00,
2013-06-05 00:52:00,59.1,42.0,29.93,North,355,0.0,2.0,54,0.00,,,0.00,weatherlink.com 1.10,2013-06-05 07:52:00,
2013-06-05 01:07:00,59.0,42.0,29.93,North,355,0.0,0.0,54,0.00,,,0.00,weatherlink.com 1.10,2013-06-05 08:07:00,
2013-06-05 01:22:00,59.0,42.0,29.93,North,355,0.0,0.0,53,0.00,,,0.00,weatherlink.com 1.10,2013-06-05 08:22:00,
2013-06-05 01:37:00,58.2,43.0,29.93,North,355,0.0,0.0,58,0.00,,,0.00,weatherlink.com 1.10,2013-06-05 08:37:00,
2013-06-05 01:52:00,55.1,43.0,29.94,North,355,0.0,0.0,64,0.00,,,0.00,weatherlink.com 1.10,2013-06-05 08:52:00,
2013-06-05 02:07:00,54.1,42.0,29.94,North,355,0.0,0.0,65,0.00,,,0.00,weatherlink.com 1.10,2013-06-05 09:07:00,
2013-06-05 02:24:00,53.9,43.0,29.93,North,355,0.0,1.0,66,0.00,,,0.00,weatherlink.com 1.10,2013-06-05 09:24:00,
2013-06-05 02:39:00,53.8,42.0,29.94,ESE,123,0.0,3.0,65,0.00,,,0.00,weatherlink.com 1.10,2013-06-05 09:39:00,
2013-06-05 02:54:00,53.1,42.0,29.94,ESE,123,0.0,3.0,67,0.00,,,0.00,weatherlink.com 1.10,2013-06-05 09:54:00,
2013-06-05 03:09:00,53.2,42.0,29.94,SE,125,0.0,4.0,66,0.00,,,0.00,weatherlink.com 1.10,2013-06-05 10:09:00,
2013-06-05 03:24:00,52.4,42.0,29.94,SE,126,0.0,4.0,68,0.00,,,0.00,weatherlink.com 1.10,2013-06-05 10:24:00,
2013-06-05 03:39:00,52.1,42.0,29.94,SE,126,0.0,1.0,69,0.00,,,0.00,weatherlink.com 1.10,2013-06-05 10:39:00,
2013-06-05 03:54:00,52.6,42.0,29.94,SE,126,0.0,2.0,68,0.00,,,0.00,weatherlink.com 1.10,2013-06-05 10:54:00,
2013-06-05 04:09:00,51.4,42.0,29.94,SE,127,0.0,0.0,69,0.00,,,0.00,weatherlink.com 1.10,2013-06-05 11:09:00,
2013-06-05 04:24:00,52.3,41.0,29.94,SE,127,0.0,2.0,66,0.00,,,0.00,weatherlink.com 1.10,2013-06-05 11:24:00,
2013-06-05 04:39:00,52.3,41.0,29.94,SE,128,0.0,2.0,65,0.00,,,0.00,weatherlink.com 1.10,2013-06-05 11:39:00,
2013-06-05 04:54:00,51.3,41.0,29.94,SE,130,0.0,3.0,68,0.00,,,0.00,weatherlink.com 1.10,2013-06-05 11:54:00,
2013-06-05 05:10:00,52.0,41.0,29.95,SE,131,0.0,3.0,67,0.00,,,0.00,weatherlink.com 1.10,2013-06-05 12:10:00,
2013-06-05 05:25:00,51.5,41.0,29.95,SE,131,0.0,0.0,68,0.00,,,0.00,weatherlink.com 1.10,2013-06-05 12:25:00,
2013-06-05 05:40:00,50.7,42.0,29.95,SE,130,0.0,0.0,71,0.00,,,0.00,weatherlink.com 1.10,2013-06-05 12:40:00,
2013-06-05 05:55:00,50.4,41.0,29.95,SE,131,0.0,0.0,71,0.00,,,0.00,weatherlink.com 1.10,2013-06-05 12:55:00,
2013-06-05 06:10:00,50.9,42.0,29.95,SE,130,0.0,0.0,72,0.00,,,0.00,weatherlink.com 1.10,2013-06-05 13:10:00,
2013-06-05 06:25:00,51.6,42.0,29.95,SE,130,0.0,1.0,71,0.00,,,0.00,weatherlink.com 1.10,2013-06-05 13:25:00,
2013-06-05 06:41:00,52.4,43.0,29.96,SE,131,0.0,0.0,71,0.00,,,0.00,weatherlink.com 1.10,2013-06-05 13:41:00,
2013-06-05 06:56:00,53.5,44.0,29.96,SE,131,0.0,3.0,70,0.00,,,0.00,weatherlink.com 1.10,2013-06-05 13:56:00,
2013-06-05 07:11:00,55.0,44.0,29.96,SSW,202,3.0,6.0,66,0.00,,,0.00,weatherlink.com 1.10,2013-06-05 14:11:00,
2013-06-05 07:26:00,56.2,44.0,29.96,SSW,205,2.0,5.0,64,0.00,,,0.00,weatherlink.com 1.10,2013-06-05 14:26:00,
2013-06-05 07:41:00,57.5,44.0,29.96,SSW,205,0.0,0.0,61,0.00,,,0.00,weatherlink.com 1.10,2013-06-05 14:41:00,
2013-06-05 08:27:00,61.8,46.0,29.96,SSW,205,0.0,0.0,57,0.00,,,0.00,weatherlink.com 1.10,2013-06-05 15:27:00,
2013-06-05 08:42:00,63.0,45.0,29.96,SSW,205,0.0,0.0,52,0.00,,,0.00,weatherlink.com 1.10,2013-06-05 15:42:00,
2013-06-05 08:57:00,65.2,45.0,29.96,SSW,205,0.0,0.0,48,0.00,,,0.00,weatherlink.com 1.10,2013-06-05 15:57:00,
2013-06-05 09:12:00,67.1,45.0,29.96,SSW,205,0.0,0.0,46,0.00,,,0.00,weatherlink.com 1.10,2013-06-05 16:12:00,
2013-06-05 09:27:00,69.5,47.0,29.96,SSW,205,0.0,0.0,44,0.00,,,0.00,weatherlink.com 1.10,2013-06-05 16:27:00,
2013-06-05 09:42:00,71.2,47.0,29.96,SSW,205,0.0,1.0,43,0.00,,,0.00,weatherlink.com 1.10,2013-06-05 16:42:00,
2013-06-05 09:59:00,73.0,48.0,29.96,SSW,205,0.0,0.0,42,0.00,,,0.00,weatherlink.com 1.10,2013-06-05 16:59:00,
2013-06-05 10:14:00,74.7,49.0,29.95,SSW,205,0.0,1.0,40,0.00,,,0.00,weatherlink.com 1.10,2013-06-05 17:14:00,
2013-06-05 10:29:00,75.4,48.0,29.94,SSW,202,0.0,2.0,38,0.00,,,0.00,weatherlink.com 1.10,2013-06-05 17:29:00,
2013-06-05 10:44:00,75.4,50.0,29.94,SSW,196,3.0,3.0,41,0.00,,,0.00,weatherlink.com 1.10,2013-06-05 17:44:00,
2013-06-05 10:59:00,76.1,49.0,29.93,SSE,153,1.0,3.0,39,0.00,,,0.00,weatherlink.com 1.10,2013-06-05 17:59:00,
2013-06-05 11:14:00,77.5,48.0,29.93,SE,126,0.0,3.0,36,0.00,,,0.00,weatherlink.com 1.10,2013-06-05 18:14:00,
2013-06-05 11:29:00,80.0,52.0,29.93,SE,124,0.0,3.0,38,0.00,,,0.00,weatherlink.com 1.10,2013-06-05 18:29:00,
2013-06-05 11:44:00,80.0,47.0,29.92,ESE,121,0.0,3.0,31,0.00,,,0.00,weatherlink.com 1.10,2013-06-05 18:44:00,
2013-06-05 11:59:00,81.1,49.0,29.92,ESE,113,0.0,3.0,32,0.00,,,0.00,weatherlink.com 1.10,2013-06-05 18:59:00,
2013-06-05 12:14:00,83.2,50.0,29.92,ESE,113,0.0,3.0,31,0.00,,,0.00,weatherlink.com 1.10,2013-06-05 19:14:00,
2013-06-05 12:30:00,85.9,51.0,29.91,ESE,109,0.0,2.0,30,0.00,,,0.00,weatherlink.com 1.10,2013-06-05 19:30:00,
2013-06-05 12:45:00,85.4,48.0,29.91,ENE,74,0.0,4.0,27,0.00,,,0.00,weatherlink.com 1.10,2013-06-05 19:45:00,
2013-06-05 13:00:00,84.0,47.0,29.90,NE,34,1.0,4.0,27,0.00,,,0.00,weatherlink.com 1.10,2013-06-05 20:00:00,
2013-06-05 13:15:00,84.5,47.0,29.90,NNE,28,0.0,4.0,27,0.00,,,0.00,weatherlink.com 1.10,2013-06-05 20:15:00,
2013-06-05 13:30:00,85.7,49.0,29.90,NNE,19,5.0,7.0,28,0.00,,,0.00,weatherlink.com 1.10,2013-06-05 20:30:00,
2013-06-05 13:45:00,88.6,49.0,29.89,NNE,25,1.0,7.0,25,0.00,,,0.00,weatherlink.com 1.10,2013-06-05 20:45:00,
2013-06-05 14:01:00,88.5,50.0,29.89,NNE,22,0.0,6.0,27,0.00,,,0.00,weatherlink.com 1.10,2013-06-05 21:01:00,
2013-06-05 14:16:00,89.0,51.0,29.88,ENE,60,0.0,4.0,27,0.00,,,0.00,weatherlink.com 1.10,2013-06-05 21:16:00,
2013-06-05 14:31:00,91.0,51.0,29.87,NE,36,2.0,5.0,25,0.00,,,0.00,weatherlink.com 1.10,2013-06-05 21:31:00,
2013-06-05 14:46:00,91.1,51.0,29.86,ENE,78,2.0,4.0,25,0.00,,,0.00,weatherlink.com 1.10,2013-06-05 21:46:00,
2013-06-05 15:16:00,91.8,52.0,29.85,ENE,60,0.0,4.0,26,0.00,,,0.00,weatherlink.com 1.10,2013-06-05 22:16:00,
2013-06-05 15:31:00,92.2,54.0,29.84,ENE,71,1.0,4.0,27,0.00,,,0.00,weatherlink.com 1.10,2013-06-05 22:31:00,
2013-06-05 15:46:00,91.1,53.0,29.84,East,92,0.0,5.0,27,0.00,,,0.00,weatherlink.com 1.10,2013-06-05 22:46:00,
2013-06-05 16:02:00,87.0,51.0,29.83,ESE,117,1.0,5.0,29,0.00,,,0.00,weatherlink.com 1.10,2013-06-05 23:02:00,
2013-06-05 16:17:00,87.4,56.0,29.82,ESE,111,0.0,8.0,34,0.00,,,0.00,weatherlink.com 1.10,2013-06-05 23:17:00,
2013-06-05 16:32:00,88.0,51.0,29.82,ESE,111,0.0,1.0,28,0.00,,,0.00,weatherlink.com 1.10,2013-06-05 23:32:00,
2013-06-05 16:47:00,86.1,54.0,29.82,ESE,109,0.0,2.0,33,0.00,,,0.00,weatherlink.com 1.10,2013-06-05 23:47:00,
2013-06-05 17:02:00,87.9,53.0,29.82,ESE,109,0.0,3.0,30,0.00,,,0.00,weatherlink.com 1.10,2013-06-06 00:02:00,
2013-06-05 17:17:00,88.8,59.0,29.81,ESE,115,3.0,7.0,36,0.00,,,0.00,weatherlink.com 1.10,2013-06-06 00:17:00,
2013-06-05 17:34:00,85.6,56.0,29.81,ESE,114,1.0,2.0,37,0.00,,,0.00,weatherlink.com 1.10,2013-06-06 00:34:00,
2013-06-05 17:49:00,85.5,60.0,29.80,ESE,115,0.0,0.0,42,0.00,,,0.00,weatherlink.com 1.10,2013-06-06 00:49:00,
2013-06-05 18:04:00,87.0,53.0,29.80,ESE,115,0.0,4.0,31,0.00,,,0.00,weatherlink.com 1.10,2013-06-06 01:04:00,
2013-06-05 18:18:00,88.5,54.0,29.80,NW,323,1.0,8.0,31,0.00,,,0.00,weatherlink.com 1.10,2013-06-06 01:18:00,
2013-06-05 18:34:00,85.9,54.0,29.80,NW,309,2.0,10.0,34,0.00,,,0.00,weatherlink.com 1.10,2013-06-06 01:34:00,
2013-06-05 18:49:00,83.7,55.0,29.80,NW,325,7.0,12.0,37,0.00,,,0.00,weatherlink.com 1.10,2013-06-06 01:49:00,
2013-06-05 19:04:00,83.5,54.0,29.80,NW,323,4.0,10.0,36,0.00,,,0.00,weatherlink.com 1.10,2013-06-06 02:04:00,
2013-06-05 19:19:00,83.0,55.0,29.80,NW,323,3.0,8.0,38,0.00,,,0.00,weatherlink.com 1.10,2013-06-06 02:19:00,
2013-06-05 19:34:00,81.7,55.0,29.80,NNW,329,3.0,9.0,40,0.00,,,0.00,weatherlink.com 1.10,2013-06-06 02:34:00,
2013-06-05 19:49:00,80.1,53.0,29.81,NNW,332,4.0,10.0,39,0.00,,,0.00,weatherlink.com 1.10,2013-06-06 02:49:00,
2013-06-05 20:04:00,78.2,53.0,29.81,NNW,333,0.0,5.0,41,0.00,,,0.00,weatherlink.com 1.10,2013-06-06 03:04:00,
2013-06-05 20:19:00,76.0,51.0,29.82,NNW,333,2.0,4.0,42,0.00,,,0.00,weatherlink.com 1.10,2013-06-06 03:19:00,
2013-06-05 20:34:00,73.9,51.0,29.82,NNW,327,0.0,6.0,44,0.00,,,0.00,weatherlink.com 1.10,2013-06-06 03:34:00,
2013-06-05 20:49:00,72.9,50.0,29.83,NNW,342,0.0,3.0,44,0.00,,,0.00,weatherlink.com 1.10,2013-06-06 03:49:00,
2013-06-05 21:04:00,70.7,49.0,29.84,NNW,329,0.0,2.0,47,0.00,,,0.00,weatherlink.com 1.10,2013-06-06 04:04:00,
2013-06-05 21:19:00,69.3,49.0,29.84,NNW,329,0.0,2.0,48,0.00,,,0.00,weatherlink.com 1.10,2013-06-06 04:19:00,
2013-06-05 21:35:00,68.0,49.0,29.84,NNW,329,2.0,3.0,50,0.00,,,0.00,weatherlink.com 1.10,2013-06-06 04:35:00,
2013-06-05 21:50:00,67.7,47.0,29.84,NNW,329,2.0,2.0,48,0.00,,,0.00,weatherlink.com 1.10,2013-06-06 04:50:00,
2013-06-05 22:05:00,67.7,47.0,29.85,NW,326,0.0,2.0,48,0.00,,,0.00,weatherlink.com 1.10,2013-06-06 05:05:00,
2013-06-05 22:20:00,66.5,47.0,29.86,NW,326,1.0,2.0,50,0.00,,,0.00,weatherlink.com 1.10,2013-06-06 05:20:00,
2013-06-05 22:35:00,67.1,47.0,29.86,NW,326,2.0,3.0,48,0.00,,,0.00,weatherlink.com 1.10,2013-06-06 05:35:00,
2013-06-05 22:50:00,66.4,46.0,29.86,NW,326,1.0,4.0,49,0.00,,,0.00,weatherlink.com 1.10,2013-06-06 05:50:00,
2013-06-05 23:05:00,64.9,47.0,29.86,NW,326,0.0,4.0,52,0.00,,,0.00,weatherlink.com 1.10,2013-06-06 06:05:00,
2013-06-05 23:20:00,64.5,47.0,29.86,NW,325,3.0,4.0,53,0.00,,,0.00,weatherlink.com 1.10,2013-06-06 06:20:00,
2013-06-05 23:35:00,64.4,47.0,29.86,NW,323,1.0,4.0,54,0.00,,,0.00,weatherlink.com 1.10,2013-06-06 06:35:00,
2013-06-05 23:51:00,64.1,47.0,29.86,NW,323,1.0,2.0,55,0.00,,,0.00,weatherlink.com 1.10,2013-06-06 06:51:00,